ポートオブスペイン の空港の天気 - METARとTAF

ピアルコ国際空港(ポートオブスペイン) ( TTPP / POS ) - トリニダード・トバゴ ポートオブスペイン (トリニダード島)
飛行場実況気象(Metar)
観測時間08/25 15:00 AST (08/25 19:00 UTC)
風向・風速南東 5m/s
視程8000m
天気現象
少しの雲 雲底高度 730m
気温32℃
湿度71%
気圧1012hPa
METARTTPP 251900Z 13009KT 070V160 8000 FEW024 32/26 Q1012 NOSIG
過去の天気等 Google飛行場航空写真 Wunderground天気予報

過去48時間のMETAR

飛行場予報(TAF)
発表時間: 8/25 12:00 AST (8/25 16:00 UTC)
予報対象時間: 25日14時 AST ~ 26日14時 AST
風向・風速東 6m/s
視程10km以上
全天の4割程度の雲 雲底高度 670m
25日14時 AST ~ 25日17時 AST に一時的に
視程6000m
天気現象しゅう雨 周辺でしゅう雨
少しの積乱雲 雲底高度 370m
全天の8割程度の雲 雲底高度 550m
25日20時 AST ~ 25日22時 AST に徐々に
風向・風速静穏
少しの雲 雲底高度 490m
26日8時 AST ~ 26日10時 AST に徐々に
風向・風速東 5m/s
全天の4割程度の雲 雲底高度 670m
TAF TTPP 251600Z 2518/2618 09012KT 9999 SCT022
TEMPO 2518/2521 6000 SHRA VCSH FEW012CB BKN018
BECMG 2600/2602 00000KT FEW016
BECMG 2612/2614 09010KT SCT022